createdAt,value
2022-10-17T00:14:33.073Z,100
2022-10-17T00:54:35.318Z,100
2022-10-17T02:14:40.834Z,95
2022-10-17T02:54:43.237Z,94
2022-10-17T03:34:45.202Z,93
2022-10-17T03:44:46.248Z,93
2022-10-17T03:54:47.076Z,92
2022-10-17T04:14:47.543Z,92
2022-10-17T04:24:47.728Z,92
2022-10-17T04:44:48.834Z,91
2022-10-17T04:54:49.248Z,90
2022-10-17T05:44:51.417Z,89
2022-10-17T05:54:51.574Z,88
2022-10-17T06:04:52.413Z,88
2022-10-17T06:14:53.065Z,88
2022-10-17T06:34:54.003Z,87
2022-10-17T06:44:54.306Z,88
2022-10-17T06:54:54.671Z,89
2022-10-17T07:04:55.703Z,88
2022-10-17T07:14:56.276Z,87
2022-10-17T07:24:56.934Z,87
2022-10-17T07:34:57.090Z,87
2022-10-17T07:44:57.661Z,86
2022-10-17T07:54:57.844Z,85
2022-10-17T08:04:58.094Z,84
2022-10-17T08:14:58.811Z,84
2022-10-17T08:24:59.589Z,83
2022-10-17T08:35:00.432Z,82
2022-10-17T08:45:00.655Z,80
2022-10-17T08:55:00.909Z,79
2022-10-17T09:05:01.731Z,78
2022-10-17T09:25:02.524Z,77
2022-10-17T09:35:02.698Z,77
2022-10-17T09:45:03.200Z,77
2022-10-17T09:55:03.542Z,77
2022-10-17T10:05:05.387Z,77
2022-10-17T10:15:04.942Z,78
2022-10-17T10:25:05.746Z,77
2022-10-17T10:35:06.577Z,77
2022-10-17T10:45:09.372Z,77
2022-10-17T10:55:08.191Z,76
2022-10-17T11:05:08.830Z,76
2022-10-17T11:15:08.921Z,76
2022-10-17T11:25:09.511Z,76
2022-10-17T11:35:10.047Z,77
2022-10-17T11:45:10.771Z,77
2022-10-17T11:55:11.295Z,77
2022-10-17T12:05:11.966Z,77
2022-10-17T12:15:12.145Z,77
2022-10-17T12:25:12.254Z,78
2022-10-17T12:35:12.748Z,78
2022-10-17T12:45:13.804Z,79
2022-10-17T12:55:14.822Z,80
2022-10-17T13:05:14.627Z,81
2022-10-17T13:25:16.309Z,84
2022-10-17T13:35:16.873Z,84
2022-10-17T13:45:17.204Z,84
2022-10-17T13:55:18.102Z,86
2022-10-17T14:05:19.623Z,87
2022-10-17T14:15:19.614Z,88
2022-10-17T14:25:19.918Z,88
2022-10-17T14:35:40.940Z,88
2022-10-17T14:45:23.535Z,88
2022-10-17T14:55:21.621Z,88
2022-10-17T15:05:22.029Z,89
2022-10-17T15:15:22.582Z,89
2022-10-17T15:25:23.620Z,89
2022-10-17T15:35:24.379Z,90
2022-10-17T15:45:24.891Z,92
2022-10-17T15:55:25.277Z,93
2022-10-17T16:05:25.637Z,94
2022-10-17T16:15:26.358Z,95
2022-10-17T16:25:26.589Z,95
2022-10-17T16:35:26.718Z,96
2022-10-17T16:45:27.267Z,95
2022-10-17T16:55:28.143Z,95
2022-10-17T17:05:28.613Z,96
2022-10-17T17:15:29.345Z,96
2022-10-17T17:25:30.051Z,96
2022-10-17T17:35:30.555Z,97
2022-10-17T17:45:31.608Z,97
2022-10-17T17:55:32.110Z,97
2022-10-17T18:05:32.857Z,97
2022-10-17T18:15:33.476Z,97
2022-10-17T18:25:34.215Z,97
2022-10-17T18:35:34.710Z,98
2022-10-17T18:45:35.163Z,98
2022-10-17T19:05:35.972Z,98
2022-10-17T19:15:36.973Z,98
2022-10-17T19:25:37.660Z,98
2022-10-17T19:35:38.370Z,98
2022-10-17T19:45:47.394Z,98
2022-10-17T19:55:47.963Z,98
2022-10-17T20:05:48.276Z,98
2022-10-17T20:15:49.299Z,98
2022-10-17T20:25:56.817Z,97
2022-10-17T20:35:49.879Z,97
2022-10-17T20:55:51.194Z,96
2022-10-17T21:05:51.791Z,96
2022-10-17T21:15:52.491Z,97
2022-10-17T21:45:54.250Z,99
2022-10-17T22:15:56.479Z,99
2022-10-17T23:05:59.782Z,100
2022-10-17T23:36:02.217Z,100
2022-10-17T23:46:02.467Z,100
2022-10-17T23:56:03.143Z,100
